Time;durP1;ratioP1;P1;durP2;ratioP2;P2;SDS_P1;SDS_P2;PMS_P1;PMS_P2;Temp;Humidity;BMP_temperature;BMP_pressure;BME280_temperature;BME280_humidity;BME280_pressure;Samples;Min_cycle;Max_cycle;Signal;HPM_P1;HPM_P2
2022/12/19 00:01:14;;;;;;;;;27.33;19.33;;;;;;;;5072753;27;45475;-65
2022/12/19 00:03:40;;;;;;;;;21.67;18.33;;;;;;;;5076798;28;45375;-67
2022/12/19 00:06:05;;;;;;;;;25.33;22.00;;;;;;;;5078521;28;46476;-65
2022/12/19 00:08:30;;;;;;;;;21.67;13.33;;;;;;;;5079063;27;45433;-66
2022/12/19 00:10:57;;;;;;;;;22.33;19.00;;;;;;;;5078855;28;45447;-66
2022/12/19 00:13:22;;;;;;;;;19.33;17.67;;;;;;;;5079117;28;45923;-66
2022/12/19 00:15:47;;;;;;;;;16.67;16.00;;;;;;;;5077785;27;47457;-66
2022/12/19 00:18:13;;;;;;;;;19.67;18.33;;;;;;;;5078076;28;45283;-66
2022/12/19 00:20:38;;;;;;;;;29.67;20.67;;;;;;;;5078662;28;45541;-66
2022/12/19 00:23:03;;;;;;;;;18.00;16.67;;;;;;;;5079022;28;45438;-66
2022/12/19 00:25:28;;;;;;;;;20.67;15.67;;;;;;;;5078680;28;45798;-66
2022/12/19 00:27:53;;;;;;;;;25.33;21.33;;;;;;;;5078708;27;45526;-66
2022/12/19 00:30:19;;;;;;;;;22.33;17.33;;;;;;;;5078475;28;45446;-67
2022/12/19 00:32:44;;;;;;;;;25.33;18.00;;;;;;;;5076865;27;45896;-67
2022/12/19 00:35:09;;;;;;;;;25.67;18.00;;;;;;;;5078406;28;45799;-67
2022/12/19 00:37:34;;;;;;;;;18.67;16.33;;;;;;;;5077476;28;45278;-66
2022/12/19 00:40:00;;;;;;;;;20.33;15.00;;;;;;;;5078474;27;45411;-67
2022/12/19 00:42:25;;;;;;;;;20.33;16.00;;;;;;;;5078767;27;45468;-67
2022/12/19 00:44:50;;;;;;;;;21.00;19.33;;;;;;;;5078370;28;46551;-66
2022/12/19 00:47:15;;;;;;;;;16.00;14.33;;;;;;;;5078336;28;45429;-66
2022/12/19 00:49:40;;;;;;;;;20.67;18.33;;;;;;;;5077697;27;45475;-67
2022/12/19 00:52:06;;;;;;;;;17.00;15.33;;;;;;;;5078080;28;45418;-67
2022/12/19 00:54:31;;;;;;;;;20.00;19.33;;;;;;;;5078282;28;45418;-67
2022/12/19 00:56:56;;;;;;;;;21.67;14.67;;;;;;;;5077086;27;45392;-66
2022/12/19 00:59:21;;;;;;;;;19.67;16.33;;;;;;;;5077628;28;45297;-68
2022/12/19 01:01:46;;;;;;;;;25.33;19.33;;;;;;;;5078537;28;45375;-67
2022/12/19 01:04:13;;;;;;;;;23.00;17.67;;;;;;;;5078014;28;45625;-65
2022/12/19 01:06:38;;;;;;;;;18.00;16.33;;;;;;;;5077100;27;45423;-67
2022/12/19 01:09:06;;;;;;;;;12.33;12.33;;;;;;;;5078207;28;45338;-66
2022/12/19 01:14:15;;;;;;;;;19.00;17.33;;;;;;;;5077050;28;45251;-66
2022/12/19 01:16:41;;;;;;;;;26.00;18.67;;;;;;;;5078011;28;45375;-67
2022/12/19 01:19:06;;;;;;;;;26.67;19.33;;;;;;;;5078064;28;45305;-66
2022/12/19 01:21:31;;;;;;;;;18.33;15.33;;;;;;;;5077971;28;45638;-66
2022/12/19 01:23:57;;;;;;;;;21.00;15.33;;;;;;;;5077015;27;45583;-67
2022/12/19 01:26:22;;;;;;;;;20.67;17.67;;;;;;;;5077740;27;45367;-65
2022/12/19 01:28:47;;;;;;;;;17.33;14.00;;;;;;;;5078009;28;45386;-66
2022/12/19 01:31:12;;;;;;;;;21.00;15.33;;;;;;;;5077916;28;45420;-66
2022/12/19 01:33:39;;;;;;;;;22.67;17.00;;;;;;;;5077348;28;46606;-66
2022/12/19 01:36:06;;;;;;;;;20.33;14.33;;;;;;;;5077386;27;45470;-66
2022/12/19 01:38:32;;;;;;;;;12.33;12.00;;;;;;;;5077665;28;45471;-65
2022/12/19 01:40:57;;;;;;;;;19.67;17.67;;;;;;;;5076911;27;45599;-67
2022/12/19 01:43:24;;;;;;;;;27.33;15.00;;;;;;;;5077436;28;46552;-67
2022/12/19 01:45:54;;;;;;;;;20.00;16.33;;;;;;;;5077638;28;45396;-65
2022/12/19 01:48:24;;;;;;;;;20.67;17.67;;;;;;;;5068704;27;45368;-65
2022/12/19 01:50:57;;;;;;;;;19.00;18.00;;;;;;;;5066512;28;45504;-65
2022/12/19 01:53:24;;;;;;;;;21.67;19.67;;;;;;;;5067958;28;46565;-66
2022/12/19 01:55:49;;;;;;;;;25.00;17.00;;;;;;;;5067065;27;45444;-66
2022/12/19 01:58:15;;;;;;;;;26.00;23.33;;;;;;;;5072493;28;45445;-67
2022/12/19 02:00:42;;;;;;;;;19.00;16.67;;;;;;;;5067358;28;46687;-66
2022/12/19 02:03:13;;;;;;;;;18.00;14.67;;;;;;;;5076437;28;47418;-67
2022/12/19 02:05:38;;;;;;;;;18.00;14.00;;;;;;;;5073632;28;45342;-66
2022/12/19 02:08:04;;;;;;;;;17.33;13.33;;;;;;;;5076952;28;45393;-67
2022/12/19 02:10:29;;;;;;;;;23.00;19.33;;;;;;;;5077130;27;45829;-67
2022/12/19 02:12:55;;;;;;;;;14.33;14.00;;;;;;;;5076066;27;46240;-67
2022/12/19 02:15:20;;;;;;;;;23.67;16.67;;;;;;;;5076707;27;45356;-66
2022/12/19 02:18:04;;;;;;;;;21.00;15.33;;;;;;;;5077270;28;45378;-67
2022/12/19 02:20:48;;;;;;;;;22.00;16.67;;;;;;;;5077668;28;45885;-67
2022/12/19 02:23:14;;;;;;;;;19.00;16.67;;;;;;;;5076945;28;46768;-67
2022/12/19 02:25:42;;;;;;;;;19.67;18.67;;;;;;;;5077221;27;45418;-67
2022/12/19 02:28:07;;;;;;;;;19.67;17.00;;;;;;;;5077444;28;45360;-67
2022/12/19 02:30:32;;;;;;;;;20.00;17.00;;;;;;;;5076806;27;45289;-67
2022/12/19 02:33:04;;;;;;;;;18.67;17.33;;;;;;;;5077211;28;45371;-67
2022/12/19 02:35:41;;;;;;;;;18.00;15.33;;;;;;;;5077382;28;45792;-67
2022/12/19 02:38:25;;;;;;;;;19.67;14.33;;;;;;;;5077214;28;45457;-67
2022/12/19 02:40:56;;;;;;;;;18.67;15.00;;;;;;;;5077584;28;45364;-67
2022/12/19 02:43:23;;;;;;;;;18.67;11.33;;;;;;;;5077162;28;46160;-67
2022/12/19 02:45:50;;;;;;;;;19.00;15.00;;;;;;;;5077105;28;45278;-67
2022/12/19 02:48:16;;;;;;;;;25.33;19.00;;;;;;;;5076583;27;46142;-67
2022/12/19 02:50:42;;;;;;;;;19.33;15.00;;;;;;;;5077538;28;45341;-67
2022/12/19 02:53:12;;;;;;;;;15.00;13.33;;;;;;;;5076672;28;46823;-66
2022/12/19 02:55:47;;;;;;;;;15.67;15.00;;;;;;;;5076893;28;45660;-67
2022/12/19 02:58:12;;;;;;;;;19.67;19.67;;;;;;;;5077160;28;45484;-66
2022/12/19 03:00:53;;;;;;;;;14.00;14.00;;;;;;;;5077284;28;45569;-67
2022/12/19 03:03:18;;;;;;;;;21.33;13.67;;;;;;;;5076007;27;46555;-66
2022/12/19 03:05:53;;;;;;;;;17.67;15.00;;;;;;;;5077028;28;45328;-67
2022/12/19 03:08:36;;;;;;;;;23.33;17.00;;;;;;;;5076666;28;45397;-66
2022/12/19 03:11:04;;;;;;;;;22.67;14.67;;;;;;;;5077113;28;45244;-67
2022/12/19 03:13:32;;;;;;;;;18.33;14.67;;;;;;;;5076758;28;46060;-67
2022/12/19 03:15:58;;;;;;;;;16.00;15.00;;;;;;;;5078971;28;45437;-67
2022/12/19 03:18:23;;;;;;;;;22.00;16.00;;;;;;;;5080669;28;45229;-67
2022/12/19 03:20:51;;;;;;;;;17.33;16.67;;;;;;;;5079738;27;45519;-67
2022/12/19 03:23:17;;;;;;;;;19.67;14.67;;;;;;;;5080209;28;45465;-67
2022/12/19 03:25:45;;;;;;;;;20.67;15.33;;;;;;;;5080107;28;45374;-66
2022/12/19 03:28:12;;;;;;;;;16.00;14.33;;;;;;;;5080263;27;45376;-67
2022/12/19 03:30:39;;;;;;;;;14.67;13.67;;;;;;;;5080646;28;45784;-66
2022/12/19 03:33:06;;;;;;;;;10.00;9.00;;;;;;;;5080087;27;46197;-67
2022/12/19 03:35:32;;;;;;;;;15.67;14.33;;;;;;;;5080009;28;45888;-66
2022/12/19 03:38:01;;;;;;;;;14.00;13.00;;;;;;;;5078993;27;45440;-67
2022/12/19 03:40:27;;;;;;;;;14.00;12.00;;;;;;;;5080353;28;45423;-66
2022/12/19 03:43:09;;;;;;;;;16.67;14.33;;;;;;;;5079946;28;46709;-66
2022/12/19 03:45:40;;;;;;;;;16.00;13.33;;;;;;;;5079874;28;45423;-66
2022/12/19 03:48:18;;;;;;;;;17.67;16.00;;;;;;;;5080253;27;45375;-67
2022/12/19 03:50:52;;;;;;;;;17.33;14.67;;;;;;;;5080177;28;45242;-66
2022/12/19 03:53:44;;;;;;;;;14.33;13.00;;;;;;;;5079296;27;47575;-66
2022/12/19 03:56:27;;;;;;;;;13.33;12.67;;;;;;;;5047481;27;45356;-66
2022/12/19 03:58:58;;;;;;;;;14.00;12.33;;;;;;;;5079882;27;45292;-66
2022/12/19 04:01:25;;;;;;;;;14.67;11.67;;;;;;;;5080028;28;45451;-67
2022/12/19 04:03:51;;;;;;;;;14.00;13.33;;;;;;;;5079822;28;46745;-66
2022/12/19 04:06:16;;;;;;;;;16.00;12.33;;;;;;;;5079574;27;45328;-66
2022/12/19 04:08:41;;;;;;;;;12.67;11.67;;;;;;;;5079478;28;45395;-66
2022/12/19 04:11:08;;;;;;;;;15.67;14.00;;;;;;;;5078891;27;45454;-67
2022/12/19 04:13:40;;;;;;;;;18.67;15.67;;;;;;;;5078872;27;45321;-66
2022/12/19 04:16:11;;;;;;;;;13.33;13.33;;;;;;;;5079682;28;45334;-66
2022/12/19 04:18:39;;;;;;;;;18.33;16.33;;;;;;;;5079472;28;45170;-67
2022/12/19 04:21:07;;;;;;;;;16.00;14.00;;;;;;;;5079565;28;45360;-67
2022/12/19 04:23:41;;;;;;;;;15.00;14.33;;;;;;;;5079172;27;45393;-67
2022/12/19 04:26:06;;;;;;;;;12.67;12.00;;;;;;;;5079197;28;45316;-67
2022/12/19 04:28:37;;;;;;;;;18.33;15.33;;;;;;;;5077727;27;45388;-67
2022/12/19 04:31:03;;;;;;;;;15.00;13.67;;;;;;;;5079598;28;45610;-67
2022/12/19 04:33:28;;;;;;;;;14.67;12.33;;;;;;;;5079112;28;45391;-67
2022/12/19 04:35:53;;;;;;;;;16.33;13.67;;;;;;;;5079290;27;45324;-67
2022/12/19 04:38:18;;;;;;;;;13.67;10.33;;;;;;;;5079073;27;45585;-67
2022/12/19 04:40:44;;;;;;;;;20.00;15.00;;;;;;;;5079313;27;45415;-67
2022/12/19 04:43:09;;;;;;;;;9.00;9.00;;;;;;;;5079129;28;46455;-67
2022/12/19 04:45:34;;;;;;;;;13.67;13.33;;;;;;;;5078174;27;45417;-67
2022/12/19 04:47:59;;;;;;;;;14.00;14.00;;;;;;;;5078159;27;45430;-67
2022/12/19 04:50:25;;;;;;;;;16.33;15.67;;;;;;;;5079218;27;45504;-67
2022/12/19 04:52:50;;;;;;;;;17.00;14.00;;;;;;;;5078579;28;46171;-67
2022/12/19 04:55:15;;;;;;;;;20.67;15.67;;;;;;;;5078648;28;45654;-66
2022/12/19 04:57:40;;;;;;;;;17.00;15.00;;;;;;;;5078650;28;45557;-66
2022/12/19 05:00:07;;;;;;;;;13.67;13.67;;;;;;;;5079107;28;45459;-67
2022/12/19 05:02:32;;;;;;;;;16.33;12.33;;;;;;;;5077240;27;46550;-67
2022/12/19 05:04:58;;;;;;;;;15.67;11.33;;;;;;;;5078668;28;45367;-67
2022/12/19 05:07:23;;;;;;;;;17.00;14.00;;;;;;;;5078569;28;45232;-67
2022/12/19 05:09:48;;;;;;;;;12.67;12.67;;;;;;;;5078883;28;45354;-67
2022/12/19 05:12:14;;;;;;;;;13.33;11.67;;;;;;;;5078695;28;45319;-67
2022/12/19 05:14:39;;;;;;;;;18.67;14.33;;;;;;;;5078437;28;45250;-67
2022/12/19 05:17:04;;;;;;;;;17.00;11.33;;;;;;;;5078104;28;45435;-67
2022/12/19 05:19:29;;;;;;;;;13.33;10.00;;;;;;;;5079051;28;45444;-67
2022/12/19 05:21:55;;;;;;;;;13.33;11.33;;;;;;;;5077475;27;46542;-67
2022/12/19 05:24:20;;;;;;;;;16.00;12.00;;;;;;;;5078133;28;45447;-66
2022/12/19 05:26:46;;;;;;;;;19.67;12.00;;;;;;;;5078413;28;45472;-66
2022/12/19 05:29:11;;;;;;;;;11.67;10.33;;;;;;;;5078692;28;45392;-66
2022/12/19 05:31:37;;;;;;;;;22.67;16.00;;;;;;;;5060261;28;45558;-66
2022/12/19 05:34:02;;;;;;;;;14.33;12.67;;;;;;;;5078293;28;45282;-67
2022/12/19 05:36:27;;;;;;;;;14.00;12.00;;;;;;;;5078538;28;45295;-67
2022/12/19 05:38:52;;;;;;;;;14.00;11.33;;;;;;;;5076057;27;45398;-67
2022/12/19 05:41:19;;;;;;;;;15.00;14.67;;;;;;;;5076670;27;45497;-67
2022/12/19 05:43:44;;;;;;;;;16.33;13.67;;;;;;;;5078168;28;45480;-66
2022/12/19 05:46:10;;;;;;;;;17.75;9.75;;;;;;;;5078035;28;45532;-66
2022/12/19 05:48:35;;;;;;;;;15.33;13.33;;;;;;;;5078383;28;45400;-67
2022/12/19 05:51:01;;;;;;;;;17.00;12.33;;;;;;;;5077846;28;45404;-66
2022/12/19 05:53:27;;;;;;;;;22.00;13.67;;;;;;;;5077860;28;45458;-66
2022/12/19 05:56:00;;;;;;;;;16.33;15.33;;;;;;;;5078107;28;45399;-67
2022/12/19 05:58:26;;;;;;;;;16.00;15.67;;;;;;;;5077256;27;45304;-67
2022/12/19 06:00:51;;;;;;;;;12.67;12.33;;;;;;;;5077670;27;45441;-67
2022/12/19 06:03:16;;;;;;;;;16.00;12.33;;;;;;;;5077620;28;45665;-67
2022/12/19 06:05:42;;;;;;;;;13.67;12.33;;;;;;;;5078085;28;45344;-66
2022/12/19 06:08:07;;;;;;;;;15.00;12.67;;;;;;;;5077777;28;45310;-66
2022/12/19 06:10:33;;;;;;;;;13.33;11.67;;;;;;;;5077495;28;46199;-67
2022/12/19 06:12:58;;;;;;;;;17.33;12.00;;;;;;;;5076425;27;45391;-66
2022/12/19 06:15:23;;;;;;;;;10.00;9.00;;;;;;;;5077701;27;45218;-67
2022/12/19 06:17:51;;;;;;;;;14.33;11.67;;;;;;;;5076584;27;45402;-66
2022/12/19 06:20:16;;;;;;;;;10.33;10.33;;;;;;;;5076968;28;45567;-66
2022/12/19 06:22:42;;;;;;;;;10.33;9.00;;;;;;;;5077526;28;45325;-67
2022/12/19 06:25:08;;;;;;;;;35.00;33.00;;;;;;;;5077674;28;45248;-66
2022/12/19 06:27:33;;;;;;;;;15.33;11.00;;;;;;;;5077679;28;45393;-66
2022/12/19 06:29:58;;;;;;;;;14.67;12.67;;;;;;;;5077293;28;46294;-67
2022/12/19 06:32:23;;;;;;;;;9.33;6.33;;;;;;;;5076585;27;45411;-67
2022/12/19 06:34:49;;;;;;;;;12.00;9.00;;;;;;;;5077140;28;45375;-67
2022/12/19 06:37:14;;;;;;;;;12.00;10.67;;;;;;;;5077535;28;45371;-66
2022/12/19 06:39:39;;;;;;;;;12.33;11.00;;;;;;;;5077205;28;45410;-67
2022/12/19 06:42:23;;;;;;;;;12.00;10.00;;;;;;;;5076942;28;45473;-67
2022/12/19 06:44:49;;;;;;;;;10.67;9.00;;;;;;;;5077516;28;45431;-66
2022/12/19 06:47:14;;;;;;;;;11.33;10.00;;;;;;;;5077609;28;45391;-66
2022/12/19 06:49:39;;;;;;;;;12.00;9.00;;;;;;;;5076685;27;45943;-66
2022/12/19 06:52:04;;;;;;;;;12.00;10.25;;;;;;;;5080824;27;45408;-67
2022/12/19 06:54:30;;;;;;;;;11.33;8.67;;;;;;;;5080939;28;45455;-66
2022/12/19 06:56:55;;;;;;;;;12.00;10.00;;;;;;;;5080924;28;45300;-66
2022/12/19 06:59:20;;;;;;;;;12.33;8.67;;;;;;;;5080689;28;46574;-67
2022/12/19 07:01:51;;;;;;;;;10.00;8.00;;;;;;;;5080117;27;45415;-67
2022/12/19 07:04:18;;;;;;;;;12.67;10.33;;;;;;;;5079905;27;45251;-67
2022/12/19 07:06:44;;;;;;;;;10.75;10.00;;;;;;;;5079908;28;45453;-66
2022/12/19 07:09:09;;;;;;;;;12.67;11.00;;;;;;;;5080564;28;46360;-66
2022/12/19 07:11:34;;;;;;;;;11.33;11.33;;;;;;;;5080240;28;45386;-66
2022/12/19 07:13:59;;;;;;;;;12.00;10.00;;;;;;;;5080342;28;45329;-66
2022/12/19 07:16:26;;;;;;;;;11.50;9.75;;;;;;;;5080510;28;45297;-66
2022/12/19 07:18:51;;;;;;;;;17.00;12.33;;;;;;;;5080259;28;45601;-66
2022/12/19 07:21:16;;;;;;;;;11.00;11.00;;;;;;;;5079253;27;45724;-66
2022/12/19 07:23:42;;;;;;;;;14.00;11.33;;;;;;;;5080586;27;45371;-66
2022/12/19 07:26:07;;;;;;;;;13.00;10.33;;;;;;;;5080251;28;45282;-67
2022/12/19 07:28:33;;;;;;;;;11.00;9.67;;;;;;;;5080295;28;46573;-66
2022/12/19 07:30:59;;;;;;;;;13.50;10.00;;;;;;;;5080086;27;45465;-66
2022/12/19 07:33:24;;;;;;;;;12.67;11.00;;;;;;;;5080356;28;45398;-66
2022/12/19 07:35:49;;;;;;;;;10.00;10.00;;;;;;;;5080651;28;45208;-66
2022/12/19 07:38:15;;;;;;;;;11.50;8.75;;;;;;;;5079324;27;46270;-66
2022/12/19 07:40:40;;;;;;;;;11.50;9.50;;;;;;;;5080328;28;45395;-66
2022/12/19 07:43:05;;;;;;;;;12.00;10.67;;;;;;;;5079448;28;45459;-66
2022/12/19 07:45:31;;;;;;;;;12.25;9.00;;;;;;;;5080176;28;45566;-66
2022/12/19 07:48:00;;;;;;;;;9.00;7.67;;;;;;;;5079618;28;45379;-66
2022/12/19 07:50:25;;;;;;;;;10.25;10.25;;;;;;;;5079737;28;45481;-65
2022/12/19 07:52:51;;;;;;;;;20.00;18.33;;;;;;;;5079870;28;45217;-65
2022/12/19 07:55:16;;;;;;;;;10.33;10.00;;;;;;;;5079166;27;45367;-66
2022/12/19 07:57:41;;;;;;;;;8.50;8.50;;;;;;;;5079619;28;45970;-66
2022/12/19 08:00:07;;;;;;;;;8.25;8.25;;;;;;;;5061631;28;45404;-66
2022/12/19 08:02:32;;;;;;;;;12.67;9.33;;;;;;;;5078633;28;45270;-66
2022/12/19 08:04:57;;;;;;;;;14.67;10.33;;;;;;;;5080266;28;45383;-66
2022/12/19 08:07:22;;;;;;;;;13.50;9.50;;;;;;;;5079736;27;46463;-66
2022/12/19 08:09:47;;;;;;;;;12.33;10.33;;;;;;;;5079696;28;45360;-66
2022/12/19 08:12:13;;;;;;;;;9.00;9.00;;;;;;;;5078765;27;45340;-66
2022/12/19 08:14:38;;;;;;;;;16.33;11.00;;;;;;;;5079870;27;45404;-66
2022/12/19 08:17:03;;;;;;;;;12.00;10.00;;;;;;;;5079611;28;45406;-66
2022/12/19 08:19:28;;;;;;;;;9.67;8.33;;;;;;;;5079573;28;45422;-66
2022/12/19 08:21:53;;;;;;;;;16.67;12.33;;;;;;;;5079501;28;45423;-66
2022/12/19 08:24:19;;;;;;;;;13.33;8.67;;;;;;;;5079686;28;45424;-65
2022/12/19 08:26:44;;;;;;;;;9.33;9.33;;;;;;;;5079216;28;46928;-65
2022/12/19 08:29:09;;;;;;;;;13.67;11.67;;;;;;;;5078286;27;45191;-65
2022/12/19 08:31:34;;;;;;;;;10.00;10.00;;;;;;;;5079508;28;45204;-66
2022/12/19 08:34:00;;;;;;;;;8.50;7.75;;;;;;;;5079547;28;45415;-66
2022/12/19 08:36:25;;;;;;;;;10.75;9.25;;;;;;;;5079132;28;46242;-66
2022/12/19 08:38:50;;;;;;;;;11.67;10.33;;;;;;;;5079166;28;45348;-66
2022/12/19 08:41:16;;;;;;;;;9.25;9.25;;;;;;;;5079461;28;45500;-66
2022/12/19 08:43:42;;;;;;;;;10.00;10.00;;;;;;;;5079316;28;45309;-66
2022/12/19 08:46:08;;;;;;;;;11.00;10.00;;;;;;;;5078148;27;46042;-66
2022/12/19 08:48:34;;;;;;;;;11.00;8.00;;;;;;;;5078971;27;45339;-66
2022/12/19 08:51:00;;;;;;;;;12.00;10.25;;;;;;;;5079167;28;45477;-66
2022/12/19 08:53:27;;;;;;;;;8.00;8.00;;;;;;;;5079465;28;45267;-66
2022/12/19 08:55:54;;;;;;;;;15.33;11.67;;;;;;;;5078954;27;46637;-66
2022/12/19 08:58:19;;;;;;;;;9.67;9.00;;;;;;;;5075261;28;45573;-65
2022/12/19 09:00:44;;;;;;;;;10.00;10.00;;;;;;;;5076018;27;45449;-65
2022/12/19 09:03:09;;;;;;;;;10.75;10.75;;;;;;;;5098498;27;45724;-65
2022/12/19 09:05:35;;;;;;;;;15.75;11.00;;;;;;;;5080795;27;46443;-65
2022/12/19 09:08:00;;;;;;;;;15.33;12.00;;;;;;;;5077252;27;45481;-65
2022/12/19 09:10:26;;;;;;;;;13.67;12.67;;;;;;;;5078706;28;45288;-65
2022/12/19 09:12:51;;;;;;;;;11.50;9.25;;;;;;;;5074356;27;45505;-65
2022/12/19 09:15:16;;;;;;;;;11.00;8.75;;;;;;;;5075224;28;45533;-66
2022/12/19 09:17:41;;;;;;;;;9.00;9.00;;;;;;;;5076918;27;45606;-65
2022/12/19 09:20:07;;;;;;;;;11.50;9.50;;;;;;;;5067764;28;45435;-65
2022/12/19 09:22:32;;;;;;;;;12.00;9.00;;;;;;;;5067118;28;45418;-65
2022/12/19 09:24:57;;;;;;;;;11.50;10.50;;;;;;;;5066559;28;46290;-63
2022/12/19 09:27:23;;;;;;;;;12.33;12.00;;;;;;;;5068808;27;45334;-63
2022/12/19 09:29:48;;;;;;;;;9.50;6.50;;;;;;;;5067920;28;45412;-64
2022/12/19 09:32:13;;;;;;;;;11.50;10.00;;;;;;;;5066899;27;45432;-65
2022/12/19 09:34:39;;;;;;;;;9.00;7.75;;;;;;;;5068697;28;45431;-65
2022/12/19 09:37:08;;;;;;;;;9.00;6.50;;;;;;;;5077548;27;45558;-64
2022/12/19 09:39:34;;;;;;;;;8.75;7.25;;;;;;;;5077664;27;45384;-64
2022/12/19 09:42:18;;;;;;;;;7.75;7.75;;;;;;;;5077672;28;45162;-65
2022/12/19 09:45:09;;;;;;;;;9.00;3.00;;;;;;;;5076046;27;47520;-64
2022/12/19 09:47:37;;;;;;;;;7.75;7.25;;;;;;;;5077500;28;45360;-65
2022/12/19 09:50:11;;;;;;;;;12.50;10.25;;;;;;;;5077423;28;45462;-65
2022/12/19 09:52:39;;;;;;;;;11.50;11.00;;;;;;;;5076832;27;45522;-65
2022/12/19 09:55:11;;;;;;;;;12.00;8.00;;;;;;;;5058442;27;45540;-64
2022/12/19 09:57:43;;;;;;;;;9.25;9.00;;;;;;;;5065787;27;45606;-64
2022/12/19 10:00:11;;;;;;;;;5.00;3.00;;;;;;;;5056689;28;45391;-61
2022/12/19 10:02:40;;;;;;;;;9.00;7.00;;;;;;;;5057340;28;45475;-63
2022/12/19 10:05:24;;;;;;;;;6.50;6.50;;;;;;;;5056704;28;47304;-63
2022/12/19 10:07:50;;;;;;;;;10.50;8.50;;;;;;;;5069153;28;45315;-64
2022/12/19 10:10:16;;;;;;;;;7.00;7.00;;;;;;;;5066630;27;45471;-64
2022/12/19 10:12:51;;;;;;;;;4.00;2.25;;;;;;;;5067615;27;45664;-64
2022/12/19 10:15:34;;;;;;;;;11.25;7.25;;;;;;;;5067119;28;45400;-63
2022/12/19 10:18:07;;;;;;;;;7.00;7.00;;;;;;;;5069593;27;45324;-64
2022/12/19 10:20:37;;;;;;;;;7.75;7.75;;;;;;;;5067862;27;45427;-64
2022/12/19 10:23:11;;;;;;;;;11.00;7.75;;;;;;;;5071820;27;45408;-64
2022/12/19 10:25:49;;;;;;;;;7.00;7.00;;;;;;;;5068381;27;46507;-65
2022/12/19 10:28:14;;;;;;;;;11.00;7.50;;;;;;;;5059469;27;45472;-64
2022/12/19 10:30:46;;;;;;;;;11.50;9.50;;;;;;;;5072727;27;47094;-64
2022/12/19 10:33:18;;;;;;;;;7.25;7.25;;;;;;;;5075752;27;45533;-64
2022/12/19 10:35:44;;;;;;;;;9.75;9.00;;;;;;;;5074531;27;46454;-64
2022/12/19 10:38:12;;;;;;;;;9.75;8.25;;;;;;;;5064531;27;46113;-63
2022/12/19 10:40:49;;;;;;;;;9.00;9.00;;;;;;;;5073651;28;45425;-63
2022/12/19 10:43:29;;;;;;;;;17.33;14.33;;;;;;;;5075082;28;45438;-64
2022/12/19 10:45:58;;;;;;;;;11.00;9.50;;;;;;;;5076044;28;46029;-64
2022/12/19 10:48:23;;;;;;;;;11.00;6.25;;;;;;;;5076717;27;45474;-64
2022/12/19 10:50:48;;;;;;;;;10.50;10.50;;;;;;;;5058716;28;45399;-64
2022/12/19 10:53:14;;;;;;;;;9.50;8.00;;;;;;;;5076623;28;45444;-64
2022/12/19 10:55:45;;;;;;;;;10.00;8.00;;;;;;;;5075197;27;46397;-64
2022/12/19 10:58:20;;;;;;;;;7.00;7.00;;;;;;;;5058864;28;45745;-64
2022/12/19 11:00:57;;;;;;;;;7.00;6.00;;;;;;;;5081130;27;45411;-64
2022/12/19 11:03:22;;;;;;;;;14.00;8.25;;;;;;;;5074244;28;45424;-64
2022/12/19 11:05:49;;;;;;;;;9.00;7.00;;;;;;;;5076207;27;45552;-64
2022/12/19 11:08:17;;;;;;;;;5.00;5.00;;;;;;;;5075405;28;45443;-64
2022/12/19 11:10:50;;;;;;;;;7.00;7.00;;;;;;;;5074850;27;45428;-64
2022/12/19 11:13:20;;;;;;;;;8.50;6.25;;;;;;;;5067922;27;45379;-64
2022/12/19 11:15:52;;;;;;;;;6.00;6.00;;;;;;;;5062730;28;45414;-63
2022/12/19 11:18:18;;;;;;;;;10.00;10.00;;;;;;;;5076363;28;45459;-63
2022/12/19 11:21:02;;;;;;;;;7.25;7.25;;;;;;;;5076025;28;45506;-64
2022/12/19 11:23:28;;;;;;;;;10.75;6.50;;;;;;;;5075740;27;45577;-63
2022/12/19 11:26:00;;;;;;;;;9.00;9.00;;;;;;;;5070532;28;45695;-63
2022/12/19 11:28:26;;;;;;;;;9.50;9.50;;;;;;;;5060502;28;45324;-63
2022/12/19 11:31:17;;;;;;;;;5.50;5.50;;;;;;;;5065193;28;45435;-64
2022/12/19 11:33:44;;;;;;;;;10.75;6.75;;;;;;;;5059099;28;45526;-65
2022/12/19 11:36:21;;;;;;;;;11.75;11.00;;;;;;;;5068292;27;46635;-64
2022/12/19 11:38:52;;;;;;;;;9.75;7.00;;;;;;;;5096766;27;45863;-64
2022/12/19 11:41:21;;;;;;;;;10.25;10.25;;;;;;;;5079950;27;45428;-63
2022/12/19 11:43:55;;;;;;;;;15.67;12.67;;;;;;;;5079294;27;45421;-63
2022/12/19 11:46:23;;;;;;;;;10.00;10.00;;;;;;;;5065678;28;45603;-64
2022/12/19 11:48:52;;;;;;;;;10.25;8.25;;;;;;;;5058897;28;45417;-62
2022/12/19 11:51:49;;;;;;;;;11.50;10.50;;;;;;;;5062618;27;45458;-62
2022/12/19 11:54:18;;;;;;;;;7.75;6.25;;;;;;;;4996745;28;45440;-62
2022/12/19 11:56:44;;;;;;;;;13.33;9.33;;;;;;;;4995446;28;46358;-62
2022/12/19 11:59:12;;;;;;;;;7.25;7.00;;;;;;;;4996832;28;45514;-61
2022/12/19 12:01:40;;;;;;;;;10.00;7.00;;;;;;;;4996676;28;45563;-61
2022/12/19 12:04:24;;;;;;;;;8.75;7.50;;;;;;;;4996871;28;45595;-62
2022/12/19 12:06:51;;;;;;;;;7.00;6.75;;;;;;;;4989635;28;45825;-61
2022/12/19 12:09:22;;;;;;;;;6.75;5.75;;;;;;;;4989351;28;45493;-63
2022/12/19 12:11:51;;;;;;;;;11.25;8.00;;;;;;;;4985764;28;45522;-63
2022/12/19 12:14:21;;;;;;;;;8.50;8.50;;;;;;;;4987830;28;45425;-63
2022/12/19 12:16:59;;;;;;;;;14.00;12.00;;;;;;;;4985953;28;45623;-63
2022/12/19 12:19:40;;;;;;;;;6.50;6.00;;;;;;;;4990010;28;46956;-63
2022/12/19 12:22:08;;;;;;;;;9.00;7.33;;;;;;;;4991674;28;45400;-62
2022/12/19 12:25:02;;;;;;;;;9.00;7.00;;;;;;;;4992486;28;45518;-63
2022/12/19 12:27:30;;;;;;;;;9.00;8.00;;;;;;;;4974655;28;45459;-61
2022/12/19 12:30:09;;;;;;;;;7.67;7.67;;;;;;;;5016249;28;45480;-61
2022/12/19 12:32:47;;;;;;;;;9.25;7.75;;;;;;;;5056235;28;45450;-63
2022/12/19 12:35:25;;;;;;;;;8.33;8.33;;;;;;;;5036074;28;45184;-63
2022/12/19 12:38:06;;;;;;;;;11.25;8.00;;;;;;;;5056482;28;45556;-63
2022/12/19 12:40:46;;;;;;;;;9.75;7.00;;;;;;;;5056051;28;45485;-63
2022/12/19 12:43:11;;;;;;;;;8.75;8.25;;;;;;;;5045026;28;45569;-63
2022/12/19 12:45:41;;;;;;;;;8.75;8.75;;;;;;;;5052651;28;45489;-63
2022/12/19 12:48:25;;;;;;;;;7.00;5.75;;;;;;;;5048926;28;46470;-62
2022/12/19 12:50:51;;;;;;;;;9.50;8.50;;;;;;;;5052279;28;45445;-62
2022/12/19 12:53:18;;;;;;;;;7.75;7.00;;;;;;;;5043742;28;45505;-63
2022/12/19 12:55:44;;;;;;;;;9.50;7.00;;;;;;;;5053818;28;45577;-63
2022/12/19 12:58:27;;;;;;;;;6.25;4.50;;;;;;;;5056541;28;46110;-63
2022/12/19 13:01:11;;;;;;;;;9.33;7.33;;;;;;;;5063536;28;45406;-63
2022/12/19 13:03:39;;;;;;;;;11.33;8.33;;;;;;;;5072728;27;45473;-63
2022/12/19 13:06:06;;;;;;;;;13.00;9.25;;;;;;;;5078084;27;45431;-63
2022/12/19 13:08:35;;;;;;;;;17.67;16.00;;;;;;;;5074270;28;46780;-63
2022/12/19 13:12:58;;;;;;;;;9.00;8.00;;;;;;;;5076242;27;45427;-63
2022/12/19 13:13:57;;;;;;;;;8.00;7.00;;;;;;;;5076960;27;45790;-64
2022/12/19 13:16:41;;;;;;;;;10.00;8.67;;;;;;;;5077552;28;45348;-63
2022/12/19 13:19:17;;;;;;;;;12.50;8.25;;;;;;;;5077860;28;46301;-63
2022/12/19 13:22:01;;;;;;;;;14.50;8.00;;;;;;;;5077970;27;45403;-63
2022/12/19 13:24:36;;;;;;;;;13.50;10.75;;;;;;;;5078130;28;45435;-64
2022/12/19 13:27:01;;;;;;;;;6.00;6.00;;;;;;;;5076983;27;45638;-64
2022/12/19 13:29:31;;;;;;;;;9.50;7.75;;;;;;;;5077420;28;45419;-64
2022/12/19 13:32:25;;;;;;;;;8.50;8.00;;;;;;;;5077258;28;45420;-65
2022/12/19 13:34:53;;;;;;;;;9.50;9.50;;;;;;;;5008974;28;45540;-65
2022/12/19 13:37:18;;;;;;;;;11.25;8.75;;;;;;;;4995561;28;45519;-64
2022/12/19 13:39:52;;;;;;;;;3.00;3.00;;;;;;;;4995038;28;46340;-64
2022/12/19 13:45:14;;;;;;;;;13.00;7.00;;;;;;;;4994513;28;45444;-64
2022/12/19 13:47:42;;;;;;;;;10.00;8.67;;;;;;;;4995088;28;45617;-65
2022/12/19 13:50:22;;;;;;;;;9.50;7.50;;;;;;;;4994654;28;45545;-64
2022/12/19 13:52:51;;;;;;;;;8.67;8.00;;;;;;;;4977829;28;45494;-64
2022/12/19 13:55:16;;;;;;;;;9.50;6.50;;;;;;;;4975441;28;45404;-63
2022/12/19 13:57:42;;;;;;;;;6.67;6.67;;;;;;;;4994356;28;45597;-64
2022/12/19 14:00:08;;;;;;;;;9.50;6.75;;;;;;;;4995211;28;46476;-64
2022/12/19 14:02:36;;;;;;;;;9.00;8.33;;;;;;;;4993769;28;45493;-64
2022/12/19 14:05:02;;;;;;;;;8.75;6.00;;;;;;;;4994102;28;45549;-64
2022/12/19 14:07:27;;;;;;;;;8.00;8.00;;;;;;;;4978421;28;45405;-64
2022/12/19 14:09:53;;;;;;;;;12.25;12.25;;;;;;;;4974593;28;47631;-64
2022/12/19 14:15:20;;;;;;;;;10.25;8.50;;;;;;;;5056599;28;45455;-63
2022/12/19 14:17:47;;;;;;;;;8.00;7.00;;;;;;;;5068259;27;45471;-63
2022/12/19 14:20:23;;;;;;;;;14.75;7.25;;;;;;;;5076420;27;46763;-64
2022/12/19 14:22:48;;;;;;;;;9.00;9.00;;;;;;;;5075143;28;45430;-63
2022/12/19 14:25:13;;;;;;;;;7.50;5.00;;;;;;;;5076363;28;45381;-63
2022/12/19 14:27:41;;;;;;;;;10.00;9.00;;;;;;;;5078200;27;45411;-64
2022/12/19 14:30:14;;;;;;;;;14.33;13.00;;;;;;;;5082453;27;45519;-63
2022/12/19 14:32:39;;;;;;;;;8.75;7.25;;;;;;;;5085519;27;45551;-64
2022/12/19 14:35:08;;;;;;;;;9.33;9.33;;;;;;;;5075606;27;45541;-64
2022/12/19 14:37:37;;;;;;;;;10.00;10.00;;;;;;;;5076662;28;45250;-64
2022/12/19 14:40:10;;;;;;;;;10.33;9.00;;;;;;;;5076324;28;46191;-64
2022/12/19 14:45:33;;;;;;;;;10.75;5.00;;;;;;;;5075614;28;45397;-64